Michel Dsr — FLTE — position and weather

sailwx.info

Track history (hours):
 
Tides and Currents Weather Stations Pressure Air Temp Water Temp Dewpoint Dewpoint Depression Visibility Wind Speed Wind Dir Waves Ship Positions

Michel Dsr

Last reported at 2014-Aug-21 05:33 UTC. Time now 2014-Aug-21 06:23 UTC.
Position N 46°10' W 001°13'.

Length 80 m; draft 5.9 m.

Type: Dredging. MMSI: 228344700.

Date/timePositionNaut miles runAvg speedWind from/ knotsBaromVisibWave heightAir tempDewpointWater temp
2014-Aug-21 05:33N 46°10' W 001°13'0 0.0
2014-Aug-21 04:25N 46°10' W 001°13'0 0.0
2014-Aug-21 02:32N 46°10' W 001°13'0 0.0
2014-Aug-21 01:33N 46°10' W 001°13'  
2014-Aug-16 06:33N 46°10' W 001°13'  
2014-Aug-12 08:31N 46°05' W 001°35'0 0.3
2014-Aug-12 07:32N 46°05' W 001°34'0 0.0
2014-Aug-12 06:33N 46°05' W 001°34'6 5.0
2014-Aug-12 05:26N 46°09' W 001°40'1112.4
2014-Aug-12 04:33N 46°18' W 001°49'1111.2
2014-Aug-12 03:33N 46°28' W 001°57'1110.5
2014-Aug-12 02:33N 46°36' W 002°05'1110.5
2014-Aug-12 01:33N 46°44' W 002°15'50 9.9
2014-Aug-11 20:33N 47°22' W 003°03'9 9.3
2014-Aug-11 19:33N 47°29' W 003°11'1110.8
2014-Aug-11 18:33N 47°38' W 003°20'7 6.7
2014-Aug-11 17:33N 47°45' W 003°19'0 0.0
2014-Aug-11 16:33N 47°45' W 003°19'0 0.0
2014-Aug-11 15:33N 47°45' W 003°19'2 2.2
2014-Aug-11 14:33N 47°43' W 003°22'4 4.3
2014-Aug-11 13:33N 47°39' W 003°23'0 0.0
2014-Aug-11 12:33N 47°39' W 003°23'0 0.0
2014-Aug-11 11:33N 47°39' W 003°23'0 0.0
2014-Aug-11 10:33N 47°39' W 003°23'0 0.0
2014-Aug-11 09:33N 47°39' W 003°23'0 0.0
2014-Aug-11 08:33N 47°39' W 003°23'0 0.0
2014-Aug-11 07:33N 47°39' W 003°23'4 4.5
2014-Aug-11 06:33N 47°36' W 003°19'1211.7
2014-Aug-11 05:33N 47°26' W 003°09'  
Track history (hours):
 
Tides and Currents Weather Stations Pressure Air Temp Water Temp Dewpoint Dewpoint Depression Visibility Wind Speed Wind Dir Waves Ship Positions

Michel Dsr

Last reported at 2014-Aug-21 05:33 UTC. Time now 2014-Aug-21 06:23 UTC.
Position N 46°10' W 001°13'.

Length 80 m; draft 5.9 m.

Type: Dredging. MMSI: 228344700.

Date/timePositionNaut miles runAvg speedWind from/ knotsBaromVisibWave heightAir tempDewpointWater temp
2014-Aug-21 05:33N 46°10' W 001°13'0 0.0
2014-Aug-21 04:25N 46°10' W 001°13'0 0.0
2014-Aug-21 02:32N 46°10' W 001°13'0 0.0
2014-Aug-21 01:33N 46°10' W 001°13'  
2014-Aug-16 06:33N 46°10' W 001°13'  
2014-Aug-12 08:31N 46°05' W 001°35'0 0.3
2014-Aug-12 07:32N 46°05' W 001°34'0 0.0
2014-Aug-12 06:33N 46°05' W 001°34'6 5.0
2014-Aug-12 05:26N 46°09' W 001°40'1112.4
2014-Aug-12 04:33N 46°18' W 001°49'1111.2
2014-Aug-12 03:33N 46°28' W 001°57'1110.5
2014-Aug-12 02:33N 46°36' W 002°05'1110.5
2014-Aug-12 01:33N 46°44' W 002°15'50 9.9
2014-Aug-11 20:33N 47°22' W 003°03'9 9.3
2014-Aug-11 19:33N 47°29' W 003°11'1110.8
2014-Aug-11 18:33N 47°38' W 003°20'7 6.7
2014-Aug-11 17:33N 47°45' W 003°19'0 0.0
2014-Aug-11 16:33N 47°45' W 003°19'0 0.0
2014-Aug-11 15:33N 47°45' W 003°19'2 2.2
2014-Aug-11 14:33N 47°43' W 003°22'4 4.3
2014-Aug-11 13:33N 47°39' W 003°23'0 0.0
2014-Aug-11 12:33N 47°39' W 003°23'0 0.0
2014-Aug-11 11:33N 47°39' W 003°23'0 0.0
2014-Aug-11 10:33N 47°39' W 003°23'0 0.0
2014-Aug-11 09:33N 47°39' W 003°23'0 0.0
2014-Aug-11 08:33N 47°39' W 003°23'0 0.0
2014-Aug-11 07:33N 47°39' W 003°23'4 4.5
2014-Aug-11 06:33N 47°36' W 003°19'1211.7
2014-Aug-11 05:33N 47°26' W 003°09'  

Dump ship's entire track history